Time;durP1;ratioP1;P1;durP2;ratioP2;P2;SDS_P1;SDS_P2;PMS_P1;PMS_P2;Temp;Humidity;BMP_temperature;BMP_pressure;BME280_temperature;BME280_humidity;BME280_pressure;Samples;Min_cycle;Max_cycle;Signal;HPM_P1;HPM_P2
2024/04/13 00:02:16;;;;;;;;;;;16.40;99.90;;;;;;5451161;26;19940;-77
2024/04/13 00:04:42;;;;;;;;;;;16.40;99.90;;;;;;5451358;26;19939;-76
2024/04/13 00:07:07;;;;;;;;;;;16.30;99.90;;;;;;5453031;26;19928;-76
2024/04/13 00:09:33;;;;;;;;;;;16.30;99.90;;;;;;5450025;26;20353;-76
2024/04/13 00:11:58;;;;;;;;;;;16.30;99.90;;;;;;5451130;26;19997;-78
2024/04/13 00:14:24;;;;;;;;;;;16.30;99.90;;;;;;5453649;26;20291;-76
2024/04/13 00:16:49;;;;;;;;;;;16.30;99.90;;;;;;5453275;26;19968;-76
2024/04/13 00:19:15;;;;;;;;;;;16.30;99.90;;;;;;5453049;26;20288;-76
2024/04/13 00:21:41;;;;;;;;;;;16.40;99.90;;;;;;5452629;26;19947;-80
2024/04/13 00:24:06;;;;;;;;;;;16.30;99.90;;;;;;5453275;26;19929;-78
2024/04/13 00:26:34;;;;;;;;;;;16.20;99.90;;;;;;5451117;26;19928;-76
2024/04/13 00:28:59;;;;;;;;;;;16.10;99.90;;;;;;5434016;26;19929;-76
2024/04/13 00:31:25;;;;;;;;;;;16.00;99.90;;;;;;5451852;26;19945;-76
2024/04/13 00:33:51;;;;;;;;;;;15.90;99.90;;;;;;5469936;26;19933;-79
2024/04/13 00:36:17;;;;;;;;;;;15.90;99.90;;;;;;5450702;26;19933;-79
2024/04/13 00:38:43;;;;;;;;;;;15.80;99.90;;;;;;5452669;26;20483;-76
2024/04/13 00:41:08;;;;;;;;;;;15.80;99.90;;;;;;5450756;26;19929;-76
2024/04/13 00:43:34;;;;;;;;;;;15.90;99.90;;;;;;5450053;26;19997;-76
2024/04/13 00:46:07;;;;;;;;;;;15.80;99.90;;;;;;5457844;26;19995;-76
2024/04/13 00:48:36;;;;;;;;;;;15.90;99.90;;;;;;5467486;26;19939;-76
2024/04/13 00:51:04;;;;;;;;;;;15.90;99.90;;;;;;5450457;26;19929;-76
2024/04/13 00:53:33;;;;;;;;;;;15.90;99.90;;;;;;5472675;26;19927;-76
2024/04/13 00:56:00;;;;;;;;;;;16.00;99.90;;;;;;5452697;26;20268;-76
2024/04/13 00:58:27;;;;;;;;;;;16.00;99.90;;;;;;5450030;26;19940;-76
2024/04/13 01:00:53;;;;;;;;;;;16.00;99.90;;;;;;5451307;26;20279;-76
2024/04/13 01:03:19;;;;;;;;;;;15.80;99.90;;;;;;5450720;26;19953;-76
2024/04/13 01:05:48;;;;;;;;;;;15.70;99.90;;;;;;5461837;26;19928;-78
2024/04/13 01:08:14;;;;;;;;;;;15.70;99.90;;;;;;5488088;26;19936;-76
2024/04/13 01:10:40;;;;;;;;;;;15.60;99.90;;;;;;5450715;26;20498;-77
2024/04/13 01:13:08;;;;;;;;;;;15.60;99.90;;;;;;5452464;26;19936;-76
2024/04/13 01:15:36;;;;;;;;;;;15.40;99.90;;;;;;5439848;26;19978;-75
2024/04/13 01:18:10;;;;;;;;;;;15.50;99.90;;;;;;5438815;26;19943;-77
2024/04/13 01:20:38;;;;;;;;;;;15.50;99.90;;;;;;5426180;26;19928;-79
2024/04/13 01:23:11;;;;;;;;;;;15.50;99.90;;;;;;5454493;26;19997;-76
2024/04/13 01:25:43;;;;;;;;;;;15.50;99.90;;;;;;5469423;26;20289;-76
2024/04/13 01:28:12;;;;;;;;;;;15.50;99.90;;;;;;5455254;26;19934;-76
2024/04/13 01:30:39;;;;;;;;;;;15.50;99.90;;;;;;5452534;26;20395;-75
2024/04/13 01:33:04;;;;;;;;;;;15.60;99.90;;;;;;5452627;26;19929;-76
2024/04/13 01:35:30;;;;;;;;;;;15.60;99.90;;;;;;5452847;26;19996;-76
2024/04/13 01:37:56;;;;;;;;;;;15.50;99.90;;;;;;5449703;26;19997;-76
2024/04/13 01:40:22;;;;;;;;;;;15.80;99.90;;;;;;5451421;26;19928;-79
2024/04/13 01:42:48;;;;;;;;;;;15.70;99.90;;;;;;5453640;26;19939;-77
2024/04/13 01:45:13;;;;;;;;;;;15.80;99.90;;;;;;5444574;26;20388;-76
2024/04/13 01:47:39;;;;;;;;;;;15.80;99.90;;;;;;5444966;26;20376;-75
2024/04/13 01:50:05;;;;;;;;;;;15.70;99.90;;;;;;5451835;26;19954;-76
2024/04/13 01:52:30;;;;;;;;;;;15.60;99.90;;;;;;5450260;26;19936;-76
2024/04/13 01:54:56;;;;;;;;;;;15.60;99.90;;;;;;5452120;26;20322;-76
2024/04/13 01:57:22;;;;;;;;;;;15.80;99.90;;;;;;5449662;26;20375;-76
2024/04/13 01:59:47;;;;;;;;;;;16.00;99.90;;;;;;5450958;26;19940;-76
2024/04/13 02:02:13;;;;;;;;;;;15.90;99.90;;;;;;5447962;26;19937;-75
2024/04/13 02:04:38;;;;;;;;;;;15.90;99.90;;;;;;5453928;26;20006;-76
2024/04/13 02:07:07;;;;;;;;;;;15.70;99.90;;;;;;5456025;26;19943;-76
2024/04/13 02:09:33;;;;;;;;;;;15.60;99.90;;;;;;5449003;26;19929;-76
2024/04/13 02:11:59;;;;;;;;;;;15.50;99.90;;;;;;5450770;26;20022;-76
2024/04/13 02:14:24;;;;;;;;;;;15.60;99.90;;;;;;5448853;26;19928;-76
2024/04/13 02:16:50;;;;;;;;;;;15.60;99.90;;;;;;5448772;26;19928;-78
2024/04/13 02:19:16;;;;;;;;;;;15.50;99.90;;;;;;5447948;26;20286;-76
2024/04/13 02:21:41;;;;;;;;;;;15.30;99.90;;;;;;5448792;26;19936;-77
2024/04/13 02:24:07;;;;;;;;;;;15.20;99.90;;;;;;5449437;26;19997;-76
2024/04/13 02:26:33;;;;;;;;;;;15.20;99.90;;;;;;5448650;26;19939;-75
2024/04/13 02:28:58;;;;;;;;;;;15.10;99.90;;;;;;5450795;26;20289;-79
2024/04/13 02:31:24;;;;;;;;;;;15.00;99.90;;;;;;5451546;26;19936;-79
2024/04/13 02:33:50;;;;;;;;;;;15.00;99.90;;;;;;5452796;26;19941;-76
2024/04/13 02:36:15;;;;;;;;;;;15.00;99.90;;;;;;5451530;26;19985;-76
2024/04/13 02:38:41;;;;;;;;;;;14.90;99.90;;;;;;5470849;26;19928;-77
2024/04/13 02:41:07;;;;;;;;;;;14.80;99.90;;;;;;5457646;26;20321;-75
2024/04/13 02:43:35;;;;;;;;;;;14.70;99.90;;;;;;5454413;26;19932;-76
2024/04/13 02:46:04;;;;;;;;;;;14.60;99.90;;;;;;5454032;26;19948;-78
2024/04/13 02:48:30;;;;;;;;;;;14.50;99.90;;;;;;5473152;26;20492;-79
2024/04/13 02:50:55;;;;;;;;;;;14.50;99.90;;;;;;5456553;26;19928;-76
2024/04/13 02:53:21;;;;;;;;;;;14.40;99.90;;;;;;5451660;26;19940;-77
2024/04/13 02:55:46;;;;;;;;;;;14.40;99.90;;;;;;5452374;26;19997;-76
2024/04/13 02:58:12;;;;;;;;;;;14.30;99.90;;;;;;5454312;26;19929;-75
2024/04/13 03:00:37;;;;;;;;;;;14.40;99.90;;;;;;5453865;26;19928;-75
2024/04/13 03:03:03;;;;;;;;;;;14.40;99.90;;;;;;5454294;26;19937;-76
2024/04/13 03:05:29;;;;;;;;;;;14.50;99.90;;;;;;5458257;26;20304;-76
2024/04/13 03:07:54;;;;;;;;;;;14.60;99.90;;;;;;5472563;26;20421;-75
2024/04/13 03:10:19;;;;;;;;;;;14.50;99.90;;;;;;5456425;26;19931;-75
2024/04/13 03:12:46;;;;;;;;;;;14.40;99.90;;;;;;5472175;26;20372;-75
2024/04/13 03:15:11;;;;;;;;;;;14.40;99.90;;;;;;5450737;26;19929;-75
2024/04/13 03:17:37;;;;;;;;;;;14.50;99.90;;;;;;5452260;26;19993;-76
2024/04/13 03:20:05;;;;;;;;;;;14.50;99.90;;;;;;5451347;26;19928;-76
2024/04/13 03:22:32;;;;;;;;;;;14.50;99.90;;;;;;5452071;26;19932;-77
2024/04/13 03:24:57;;;;;;;;;;;14.40;99.90;;;;;;5453964;26;19939;-73
2024/04/13 03:27:22;;;;;;;;;;;14.30;99.90;;;;;;5452904;26;19933;-74
2024/04/13 03:29:48;;;;;;;;;;;14.20;99.90;;;;;;5451339;26;20055;-74
2024/04/13 03:32:13;;;;;;;;;;;14.10;99.90;;;;;;5453718;26;19928;-73
2024/04/13 03:34:39;;;;;;;;;;;14.10;99.90;;;;;;5453085;26;19928;-73
2024/04/13 03:37:07;;;;;;;;;;;14.10;99.90;;;;;;5446193;26;19929;-72
2024/04/13 03:39:33;;;;;;;;;;;14.00;99.90;;;;;;5448532;26;19929;-73
2024/04/13 03:41:58;;;;;;;;;;;14.00;99.90;;;;;;5471478;26;19938;-73
2024/04/13 03:44:24;;;;;;;;;;;13.90;99.90;;;;;;5455042;26;20405;-73
2024/04/13 03:46:49;;;;;;;;;;;14.00;99.90;;;;;;5452101;26;19928;-73
2024/04/13 03:49:15;;;;;;;;;;;14.10;99.90;;;;;;5460436;26;19936;-73
2024/04/13 03:51:40;;;;;;;;;;;14.00;99.90;;;;;;5459272;26;20236;-73
2024/04/13 03:54:06;;;;;;;;;;;14.00;99.90;;;;;;5452121;26;19936;-73
2024/04/13 03:56:32;;;;;;;;;;;13.90;99.90;;;;;;5470101;26;19934;-73
2024/04/13 03:58:58;;;;;;;;;;;13.80;99.90;;;;;;5476736;26;19935;-73
2024/04/13 04:01:24;;;;;;;;;;;13.70;99.90;;;;;;5469503;26;19958;-73
2024/04/13 04:03:50;;;;;;;;;;;13.80;99.90;;;;;;5459131;26;19940;-73
2024/04/13 04:06:16;;;;;;;;;;;13.80;99.90;;;;;;5452580;26;19936;-73
2024/04/13 04:08:42;;;;;;;;;;;13.90;99.90;;;;;;5452226;26;19935;-74
2024/04/13 04:11:07;;;;;;;;;;;14.00;99.90;;;;;;5451156;26;19928;-73
2024/04/13 04:13:33;;;;;;;;;;;13.90;99.90;;;;;;5451310;26;20271;-73
2024/04/13 04:15:58;;;;;;;;;;;13.80;99.90;;;;;;5451325;26;19929;-74
2024/04/13 04:18:24;;;;;;;;;;;13.60;99.90;;;;;;5450584;26;19934;-74
2024/04/13 04:20:49;;;;;;;;;;;13.50;99.90;;;;;;5453119;26;19935;-74
2024/04/13 04:23:15;;;;;;;;;;;13.50;99.90;;;;;;5450894;26;19936;-74
2024/04/13 04:25:40;;;;;;;;;;;13.40;99.90;;;;;;5452996;26;20586;-74
2024/04/13 04:28:06;;;;;;;;;;;13.30;99.90;;;;;;5452593;26;20547;-75
2024/04/13 04:30:31;;;;;;;;;;;13.40;99.90;;;;;;5450517;26;19997;-73
2024/04/13 04:32:57;;;;;;;;;;;13.30;99.90;;;;;;5451333;26;20363;-75
2024/04/13 04:35:23;;;;;;;;;;;13.20;99.90;;;;;;5451072;26;19929;-74
2024/04/13 04:37:48;;;;;;;;;;;13.20;99.90;;;;;;5452575;26;19939;-74
2024/04/13 04:40:14;;;;;;;;;;;13.10;99.90;;;;;;5452028;26;19939;-74
2024/04/13 04:42:39;;;;;;;;;;;13.10;99.90;;;;;;5457891;26;19996;-74
2024/04/13 04:45:08;;;;;;;;;;;13.10;99.90;;;;;;5468412;26;20363;-74
2024/04/13 04:47:33;;;;;;;;;;;13.00;99.90;;;;;;5452899;26;19928;-73
2024/04/13 04:49:59;;;;;;;;;;;13.00;99.90;;;;;;5444112;26;20406;-75
2024/04/13 04:52:25;;;;;;;;;;;12.90;99.90;;;;;;5451095;26;20631;-73
2024/04/13 04:54:50;;;;;;;;;;;12.80;99.90;;;;;;5450325;26;19935;-74
2024/04/13 04:57:16;;;;;;;;;;;12.70;99.90;;;;;;5449326;26;19929;-73
2024/04/13 04:59:42;;;;;;;;;;;12.70;99.90;;;;;;5451880;26;20324;-73
2024/04/13 05:02:08;;;;;;;;;;;12.80;99.90;;;;;;5452224;26;19936;-73
2024/04/13 05:04:33;;;;;;;;;;;12.90;99.90;;;;;;5444549;26;20048;-74
2024/04/13 05:06:59;;;;;;;;;;;12.90;99.90;;;;;;5444147;26;19997;-73
2024/04/13 05:09:24;;;;;;;;;;;12.90;99.90;;;;;;5451717;26;19993;-74
2024/04/13 05:11:50;;;;;;;;;;;13.00;99.90;;;;;;5452082;26;19939;-73
2024/04/13 05:14:21;;;;;;;;;;;13.00;99.90;;;;;;5451317;26;20370;-74
2024/04/13 05:16:46;;;;;;;;;;;13.00;99.90;;;;;;5452072;26;20453;-74
2024/04/13 05:19:12;;;;;;;;;;;13.00;99.90;;;;;;5449957;26;19943;-74
2024/04/13 05:21:38;;;;;;;;;;;13.10;99.90;;;;;;5452039;26;19936;-73
2024/04/13 05:24:03;;;;;;;;;;;13.10;99.90;;;;;;5452294;26;19928;-73
2024/04/13 05:26:31;;;;;;;;;;;13.10;99.90;;;;;;5451180;26;20218;-74
2024/04/13 05:28:56;;;;;;;;;;;13.20;99.90;;;;;;5449126;26;19997;-74
2024/04/13 05:31:22;;;;;;;;;;;13.30;99.90;;;;;;5452633;26;19936;-74
2024/04/13 05:33:48;;;;;;;;;;;13.30;99.90;;;;;;5444801;26;20387;-74
2024/04/13 05:36:13;;;;;;;;;;;13.40;99.90;;;;;;5444554;26;19936;-74
2024/04/13 05:38:39;;;;;;;;;;;13.40;99.90;;;;;;5449631;26;20710;-75
2024/04/13 05:41:05;;;;;;;;;;;13.50;99.90;;;;;;5454364;26;19956;-74
2024/04/13 05:43:30;;;;;;;;;;;13.60;99.90;;;;;;5470302;26;19996;-74
2024/04/13 05:45:57;;;;;;;;;;;13.70;99.90;;;;;;5448839;26;19937;-73
2024/04/13 05:48:22;;;;;;;;;;;13.80;99.90;;;;;;5449969;26;19932;-74
2024/04/13 05:50:54;;;;;;;;;;;13.90;99.90;;;;;;5450982;26;20379;-74
2024/04/13 05:53:19;;;;;;;;;;;14.00;99.90;;;;;;5470528;26;19956;-74
2024/04/13 05:55:45;;;;;;;;;;;14.30;99.90;;;;;;5456384;26;19928;-74
2024/04/13 05:58:10;;;;;;;;;;;14.40;99.90;;;;;;5451779;26;20333;-74
2024/04/13 06:00:36;;;;;;;;;;;14.70;99.90;;;;;;5450423;26;19929;-73
2024/04/13 06:03:02;;;;;;;;;;;14.90;99.90;;;;;;5448747;26;19929;-74
2024/04/13 06:05:28;;;;;;;;;;;15.20;99.90;;;;;;5449536;26;20014;-74
2024/04/13 06:07:54;;;;;;;;;;;15.60;99.90;;;;;;5460928;26;20345;-75
2024/04/13 06:10:19;;;;;;;;;;;16.00;99.90;;;;;;5459739;26;19928;-75
2024/04/13 06:12:46;;;;;;;;;;;16.50;99.90;;;;;;5472148;26;19927;-75
2024/04/13 06:15:12;;;;;;;;;;;16.80;99.90;;;;;;5458119;26;19939;-74
2024/04/13 06:17:37;;;;;;;;;;;17.20;99.90;;;;;;5455101;26;20360;-74
2024/04/13 06:20:03;;;;;;;;;;;17.40;99.90;;;;;;5451056;26;19935;-74
2024/04/13 06:22:29;;;;;;;;;;;17.60;99.90;;;;;;5452689;26;19929;-73
2024/04/13 06:24:54;;;;;;;;;;;17.70;99.90;;;;;;5454102;26;19936;-73
2024/04/13 06:27:20;;;;;;;;;;;17.90;99.90;;;;;;5454571;26;19935;-74
2024/04/13 06:29:49;;;;;;;;;;;18.00;99.90;;;;;;5454015;26;19968;-74
2024/04/13 06:32:15;;;;;;;;;;;18.10;99.90;;;;;;5453072;26;19928;-73
2024/04/13 06:34:40;;;;;;;;;;;18.10;99.90;;;;;;5454323;26;19928;-75
2024/04/13 06:37:06;;;;;;;;;;;18.20;99.90;;;;;;5446823;26;19929;-75
2024/04/13 06:39:32;;;;;;;;;;;18.30;99.90;;;;;;5457598;26;20363;-74
2024/04/13 06:41:57;;;;;;;;;;;18.40;99.90;;;;;;5472431;26;19944;-74
2024/04/13 06:44:23;;;;;;;;;;;18.70;99.90;;;;;;5452859;26;19929;-74
2024/04/13 06:46:50;;;;;;;;;;;18.80;99.90;;;;;;5455308;26;20394;-74
2024/04/13 06:49:16;;;;;;;;;;;18.90;99.90;;;;;;5477023;26;19936;-74
2024/04/13 06:51:42;;;;;;;;;;;19.00;99.90;;;;;;5454298;26;19936;-75
2024/04/13 06:54:07;;;;;;;;;;;19.00;99.90;;;;;;5451218;26;19935;-75
2024/04/13 06:56:33;;;;;;;;;;;19.20;99.90;;;;;;5452300;26;19928;-74
2024/04/13 06:58:58;;;;;;;;;;;19.40;99.90;;;;;;5452968;26;20269;-74
2024/04/13 07:01:24;;;;;;;;;;;19.60;99.90;;;;;;5452066;26;19937;-74
2024/04/13 07:03:49;;;;;;;;;;;19.80;99.90;;;;;;5452121;26;19936;-74
2024/04/13 07:06:15;;;;;;;;;;;19.90;99.90;;;;;;5469365;26;19927;-74
2024/04/13 07:08:43;;;;;;;;;;;20.00;99.90;;;;;;5460009;26;19943;-74
2024/04/13 07:11:08;;;;;;;;;;;20.10;99.90;;;;;;5451837;26;19940;-74
2024/04/13 07:13:34;;;;;;;;;;;20.30;99.90;;;;;;5453604;26;19943;-74
2024/04/13 07:15:59;;;;;;;;;;;20.50;99.90;;;;;;5454289;26;19935;-74
2024/04/13 07:18:25;;;;;;;;;;;20.60;99.90;;;;;;5451869;26;19943;-74
2024/04/13 07:20:51;;;;;;;;;;;20.90;99.90;;;;;;5451742;26;19939;-75
2024/04/13 07:23:16;;;;;;;;;;;21.10;99.90;;;;;;5453792;26;19940;-74
2024/04/13 07:25:45;;;;;;;;;;;21.10;99.90;;;;;;5450984;26;19997;-74
2024/04/13 07:28:10;;;;;;;;;;;21.10;99.90;;;;;;5453818;26;19940;-75
2024/04/13 07:30:36;;;;;;;;;;;21.10;99.90;;;;;;5449974;26;20317;-75
2024/04/13 07:33:02;;;;;;;;;;;21.20;99.90;;;;;;5452689;26;19929;-75
2024/04/13 07:35:27;;;;;;;;;;;21.30;99.90;;;;;;5447521;26;19929;-75
2024/04/13 07:37:56;;;;;;;;;;;21.40;99.90;;;;;;5452723;26;19936;-77
2024/04/13 07:40:21;;;;;;;;;;;21.60;99.90;;;;;;5449048;26;19928;-75
2024/04/13 07:42:47;;;;;;;;;;;21.70;99.90;;;;;;5449828;26;20370;-73
2024/04/13 07:45:12;;;;;;;;;;;21.80;99.90;;;;;;5458490;26;19928;-74
2024/04/13 07:47:38;;;;;;;;;;;21.90;99.90;;;;;;5449250;26;19997;-74
2024/04/13 07:50:04;;;;;;;;;;;21.90;99.90;;;;;;5450798;26;20382;-73
2024/04/13 07:52:29;;;;;;;;;;;22.10;99.90;;;;;;5449795;26;19953;-72
2024/04/13 07:54:54;;;;;;;;;;;22.30;99.90;;;;;;5453368;26;19935;-73
2024/04/13 07:57:21;;;;;;;;;;;22.50;99.90;;;;;;5451259;26;19945;-74
2024/04/13 07:59:47;;;;;;;;;;;22.70;99.90;;;;;;5452556;26;19978;-74
2024/04/13 08:02:12;;;;;;;;;;;23.00;99.90;;;;;;5453074;26;19937;-73
2024/04/13 08:04:38;;;;;;;;;;;23.00;99.90;;;;;;5452797;26;19929;-72
2024/04/13 08:07:03;;;;;;;;;;;23.20;99.90;;;;;;5445884;26;19932;-74
2024/04/13 08:09:29;;;;;;;;;;;23.60;99.90;;;;;;5452638;26;19928;-75
2024/04/13 08:11:54;;;;;;;;;;;23.80;99.90;;;;;;5443690;26;19968;-77
2024/04/13 08:14:20;;;;;;;;;;;23.90;99.90;;;;;;5454203;26;19961;-75
2024/04/13 08:16:45;;;;;;;;;;;24.00;99.90;;;;;;5453115;26;19936;-75
2024/04/13 08:19:11;;;;;;;;;;;24.40;99.90;;;;;;5450805;26;20559;-76
2024/04/13 08:21:36;;;;;;;;;;;24.60;99.90;;;;;;5436890;26;20263;-75
2024/04/13 08:24:02;;;;;;;;;;;25.00;99.90;;;;;;5452030;26;19997;-75
2024/04/13 08:26:28;;;;;;;;;;;25.60;99.90;;;;;;5462439;26;19940;-74
2024/04/13 08:28:53;;;;;;;;;;;26.20;99.90;;;;;;5471234;26;19963;-75
2024/04/13 08:31:18;;;;;;;;;;;26.50;99.90;;;;;;5461275;26;19940;-75
2024/04/13 08:33:44;;;;;;;;;;;27.00;99.90;;;;;;5453654;26;19928;-76
2024/04/13 08:36:09;;;;;;;;;;;27.60;99.90;;;;;;5454003;26;19932;-76
2024/04/13 08:38:35;;;;;;;;;;;27.90;99.90;;;;;;5452072;26;19935;-75
2024/04/13 08:41:17;;;;;;;;;;;27.80;99.90;;;;;;5450343;26;20368;-76
2024/04/13 08:43:42;;;;;;;;;;;27.50;99.90;;;;;;5446986;26;19928;-76
2024/04/13 08:46:08;;;;;;;;;;;27.70;99.90;;;;;;5450841;26;19936;-75
2024/04/13 08:48:38;;;;;;;;;;;27.70;99.90;;;;;;5455945;26;19928;-74
2024/04/13 08:51:05;;;;;;;;;;;27.20;99.90;;;;;;5455128;26;19941;-75
2024/04/13 08:53:31;;;;;;;;;;;26.80;99.90;;;;;;5425060;26;20034;-75
2024/04/13 08:55:58;;;;;;;;;;;26.40;99.90;;;;;;5450792;26;19939;-75
2024/04/13 08:58:24;;;;;;;;;;;26.40;99.90;;;;;;5450443;26;19936;-76
2024/04/13 09:00:51;;;;;;;;;;;26.50;99.90;;;;;;5444786;26;19928;-76
2024/04/13 09:03:19;;;;;;;;;;;26.70;99.90;;;;;;5450307;26;19937;-75
2024/04/13 09:05:44;;;;;;;;;;;26.90;99.90;;;;;;5456513;26;19932;-75
2024/04/13 09:08:12;;;;;;;;;;;26.90;99.90;;;;;;5449665;26;19939;-76
2024/04/13 09:10:38;;;;;;;;;;;27.00;99.90;;;;;;5445231;26;19997;-75
2024/04/13 09:13:03;;;;;;;;;;;27.10;99.90;;;;;;5445294;26;19940;-75
2024/04/13 09:15:30;;;;;;;;;;;26.70;99.90;;;;;;5447504;26;19929;-75
2024/04/13 09:17:56;;;;;;;;;;;26.10;99.90;;;;;;5447013;26;19935;-75
2024/04/13 09:20:23;;;;;;;;;;;25.50;99.90;;;;;;5445151;26;19937;-74
2024/04/13 09:22:49;;;;;;;;;;;25.10;99.90;;;;;;5449340;26;20026;-75
2024/04/13 09:25:19;;;;;;;;;;;24.80;99.90;;;;;;5447182;26;20372;-75
2024/04/13 09:27:44;;;;;;;;;;;24.80;99.90;;;;;;5444863;26;19983;-75
2024/04/13 09:30:10;;;;;;;;;;;24.60;99.90;;;;;;5451548;26;20761;-75
2024/04/13 09:32:36;;;;;;;;;;;24.50;99.90;;;;;;5451738;26;19997;-76
2024/04/13 09:35:11;;;;;;;;;;;24.40;99.90;;;;;;5451510;26;19943;-74
2024/04/13 09:37:36;;;;;;;;;;;24.30;99.90;;;;;;5445707;26;19937;-73
2024/04/13 09:40:02;;;;;;;;;;;24.20;99.90;;;;;;5452034;26;19928;-73
2024/04/13 09:42:28;;;;;;;;;;;24.10;99.90;;;;;;5445309;26;19974;-73
2024/04/13 09:45:02;;;;;;;;;;;24.10;99.90;;;;;;5421730;26;19937;-74
2024/04/13 09:47:27;;;;;;;;;;;24.00;99.90;;;;;;5437964;26;19932;-73
2024/04/13 09:49:53;;;;;;;;;;;23.80;99.90;;;;;;5445745;26;20335;-73
2024/04/13 09:52:18;;;;;;;;;;;23.60;99.90;;;;;;5448252;26;19936;-74
2024/04/13 09:54:44;;;;;;;;;;;23.50;99.90;;;;;;5446177;26;19956;-74
2024/04/13 09:57:09;;;;;;;;;;;23.50;99.90;;;;;;5448049;26;19928;-73
2024/04/13 09:59:35;;;;;;;;;;;23.40;99.90;;;;;;5447398;26;19933;-74
2024/04/13 10:02:01;;;;;;;;;;;23.50;99.90;;;;;;5444697;26;20299;-72
2024/04/13 10:04:26;;;;;;;;;;;23.50;99.90;;;;;;5451427;26;19928;-74
2024/04/13 10:06:55;;;;;;;;;;;23.70;99.90;;;;;;5450894;26;19929;-73
2024/04/13 10:09:20;;;;;;;;;;;23.90;99.90;;;;;;5450244;26;19929;-74
2024/04/13 10:11:48;;;;;;;;;;;23.80;99.90;;;;;;5446259;26;19998;-73
2024/04/13 10:14:15;;;;;;;;;;;23.80;99.90;;;;;;5451258;26;19929;-73
2024/04/13 10:16:42;;;;;;;;;;;23.60;99.90;;;;;;5452131;26;20279;-74
2024/04/13 10:19:11;;;;;;;;;;;23.50;99.90;;;;;;5451279;26;19936;-74
2024/04/13 10:21:37;;;;;;;;;;;23.40;99.90;;;;;;5450707;26;19994;-74
2024/04/13 10:24:02;;;;;;;;;;;23.30;99.90;;;;;;5450352;26;19951;-75
2024/04/13 10:26:28;;;;;;;;;;;23.30;99.90;;;;;;5451252;26;19935;-74
2024/04/13 10:29:01;;;;;;;;;;;23.40;99.90;;;;;;5451134;26;20331;-73
2024/04/13 10:31:27;;;;;;;;;;;23.40;99.90;;;;;;5450706;26;19936;-75
2024/04/13 10:33:54;;;;;;;;;;;23.30;99.90;;;;;;5451337;26;19929;-74
2024/04/13 10:36:26;;;;;;;;;;;23.50;99.90;;;;;;5448528;26;19936;-74
2024/04/13 10:38:55;;;;;;;;;;;23.60;99.90;;;;;;5451176;26;19937;-75
2024/04/13 10:41:32;;;;;;;;;;;23.80;99.90;;;;;;5448697;26;19939;-72
2024/04/13 10:43:58;;;;;;;;;;;23.90;99.90;;;;;;5448212;26;19928;-73
2024/04/13 10:46:24;;;;;;;;;;;23.90;99.90;;;;;;5451429;26;19928;-74
2024/04/13 10:48:51;;;;;;;;;;;23.90;99.90;;;;;;5457415;26;19935;-73
2024/04/13 10:51:18;;;;;;;;;;;23.80;99.90;;;;;;5429141;26;20241;-73
2024/04/13 10:53:44;;;;;;;;;;;23.80;99.90;;;;;;5455438;26;19939;-73
2024/04/13 10:56:09;;;;;;;;;;;23.70;99.90;;;;;;5452598;26;19932;-74
2024/04/13 10:58:35;;;;;;;;;;;23.80;99.90;;;;;;5451259;26;20001;-74
2024/04/13 11:01:01;;;;;;;;;;;23.90;99.90;;;;;;5455605;26;20426;-74
2024/04/13 11:03:27;;;;;;;;;;;24.00;99.90;;;;;;5454750;26;19940;-74
2024/04/13 11:05:56;;;;;;;;;;;24.00;99.90;;;;;;5455493;26;19957;-75
2024/04/13 11:08:23;;;;;;;;;;;23.90;99.90;;;;;;5452312;26;19955;-75
2024/04/13 11:10:52;;;;;;;;;;;23.90;99.90;;;;;;5431076;26;19998;-74
2024/04/13 11:13:18;;;;;;;;;;;23.90;99.90;;;;;;5447928;26;19933;-74
2024/04/13 11:15:44;;;;;;;;;;;23.80;99.90;;;;;;5455307;26;19997;-74
2024/04/13 11:18:09;;;;;;;;;;;23.70;99.90;;;;;;5449304;26;20313;-74
2024/04/13 11:20:36;;;;;;;;;;;23.80;99.90;;;;;;5453936;26;20348;-74
2024/04/13 11:23:02;;;;;;;;;;;23.90;99.90;;;;;;5452163;26;20364;-75
2024/04/13 11:25:28;;;;;;;;;;;23.70;99.90;;;;;;5453948;26;19928;-74
2024/04/13 11:27:54;;;;;;;;;;;23.60;99.90;;;;;;5454075;26;20287;-73
2024/04/13 11:30:20;;;;;;;;;;;23.60;99.90;;;;;;5453650;26;19928;-73
2024/04/13 11:32:46;;;;;;;;;;;23.80;99.90;;;;;;5454096;26;19928;-75
2024/04/13 11:35:16;;;;;;;;;;;23.90;99.90;;;;;;5451257;26;19977;-75
2024/04/13 11:37:41;;;;;;;;;;;24.10;99.90;;;;;;5451887;26;19935;-73
2024/04/13 11:40:12;;;;;;;;;;;24.20;99.90;;;;;;5453666;26;19929;-73
2024/04/13 11:42:41;;;;;;;;;;;24.10;99.90;;;;;;5452097;26;19944;-74
2024/04/13 11:45:08;;;;;;;;;;;24.10;99.90;;;;;;5449516;26;19954;-74
2024/04/13 11:47:33;;;;;;;;;;;24.00;99.90;;;;;;5456102;26;19936;-74
2024/04/13 11:50:00;;;;;;;;;;;24.00;99.90;;;;;;5450984;26;19928;-74
2024/04/13 11:52:26;;;;;;;;;;;24.00;99.90;;;;;;5444113;26;19935;-74
2024/04/13 11:54:51;;;;;;;;;;;24.00;99.90;;;;;;5450910;26;19929;-74
2024/04/13 11:57:19;;;;;;;;;;;24.10;99.90;;;;;;5447789;26;19936;-73
2024/04/13 11:59:45;;;;;;;;;;;24.20;99.90;;;;;;5461914;26;19940;-73
2024/04/13 12:02:10;;;;;;;;;;;24.10;99.90;;;;;;5452664;26;20189;-73
2024/04/13 12:04:36;;;;;;;;;;;24.00;99.90;;;;;;5483302;26;20363;-74
2024/04/13 12:07:02;;;;;;;;;;;24.00;99.90;;;;;;5451563;26;19939;-73
2024/04/13 12:09:27;;;;;;;;;;;24.10;99.90;;;;;;5460160;26;19937;-74
2024/04/13 12:11:53;;;;;;;;;;;24.20;99.90;;;;;;5453085;26;19942;-74
2024/04/13 12:14:18;;;;;;;;;;;24.30;99.90;;;;;;5438342;26;19935;-72
2024/04/13 12:16:45;;;;;;;;;;;24.30;99.90;;;;;;5445285;26;19957;-73
2024/04/13 12:19:11;;;;;;;;;;;24.30;99.90;;;;;;5450199;26;19953;-73
2024/04/13 12:21:36;;;;;;;;;;;24.30;99.90;;;;;;5452849;26;19932;-76
2024/04/13 12:24:03;;;;;;;;;;;24.40;99.90;;;;;;5451966;26;19935;-74
2024/04/13 12:26:29;;;;;;;;;;;24.40;99.90;;;;;;5450947;26;19929;-74
2024/04/13 12:28:55;;;;;;;;;;;24.40;99.90;;;;;;5450628;26;19935;-74
2024/04/13 12:31:21;;;;;;;;;;;24.20;99.90;;;;;;5453125;26;19928;-74
2024/04/13 12:33:46;;;;;;;;;;;24.20;99.90;;;;;;5444769;26;19929;-72
2024/04/13 12:36:12;;;;;;;;;;;24.40;99.90;;;;;;5416825;26;19940;-74
2024/04/13 12:38:37;;;;;;;;;;;24.50;99.90;;;;;;5423839;26;19936;-74
2024/04/13 12:41:03;;;;;;;;;;;24.60;99.90;;;;;;5444961;26;19936;-73
2024/04/13 12:43:29;;;;;;;;;;;24.70;99.90;;;;;;5434501;26;19936;-73
2024/04/13 12:45:55;;;;;;;;;;;24.70;99.90;;;;;;5440870;26;19936;-72
2024/04/13 12:48:21;;;;;;;;;;;24.70;99.90;;;;;;5452253;26;19935;-74
2024/04/13 12:50:46;;;;;;;;;;;24.70;99.90;;;;;;5447797;26;20683;-74
2024/04/13 12:53:12;;;;;;;;;;;24.80;99.90;;;;;;5451674;26;19956;-73
2024/04/13 12:55:38;;;;;;;;;;;24.90;99.90;;;;;;5448985;26;19953;-73
2024/04/13 12:58:03;;;;;;;;;;;24.90;99.90;;;;;;5451135;26;19997;-73
2024/04/13 13:00:30;;;;;;;;;;;24.80;99.90;;;;;;5448131;26;19964;-74
2024/04/13 13:02:56;;;;;;;;;;;24.90;99.90;;;;;;5449878;26;19975;-72
2024/04/13 13:05:22;;;;;;;;;;;24.80;99.90;;;;;;5451071;26;19928;-73
2024/04/13 13:07:47;;;;;;;;;;;24.90;99.90;;;;;;5450671;26;19956;-73
2024/04/13 13:10:13;;;;;;;;;;;24.90;99.90;;;;;;5457370;26;20374;-74
2024/04/13 13:12:39;;;;;;;;;;;24.90;99.90;;;;;;5454218;26;19960;-74
2024/04/13 13:15:04;;;;;;;;;;;25.00;99.90;;;;;;5451151;26;20367;-72
2024/04/13 13:17:30;;;;;;;;;;;25.00;99.90;;;;;;5468673;26;19928;-73
2024/04/13 13:19:55;;;;;;;;;;;24.80;99.90;;;;;;5455888;26;20337;-74
2024/04/13 13:22:22;;;;;;;;;;;24.90;99.90;;;;;;5451810;26;20321;-72
2024/04/13 13:24:47;;;;;;;;;;;25.10;99.90;;;;;;5449426;26;20264;-73
2024/04/13 13:27:13;;;;;;;;;;;25.00;99.90;;;;;;5451558;26;20364;-73
2024/04/13 13:29:38;;;;;;;;;;;25.10;99.90;;;;;;5449278;26;20267;-75
2024/04/13 13:32:04;;;;;;;;;;;25.20;99.90;;;;;;5451773;26;19929;-73
2024/04/13 13:34:30;;;;;;;;;;;25.40;99.90;;;;;;5451171;26;20283;-73
2024/04/13 13:36:55;;;;;;;;;;;25.30;99.90;;;;;;5449682;26;19956;-73
2024/04/13 13:39:21;;;;;;;;;;;25.50;99.90;;;;;;5450616;26;19936;-73
2024/04/13 13:41:46;;;;;;;;;;;25.60;99.80;;;;;;5450898;26;19928;-74
2024/04/13 13:44:12;;;;;;;;;;;25.60;99.90;;;;;;5450739;26;19961;-73
2024/04/13 13:46:38;;;;;;;;;;;25.40;99.90;;;;;;5449468;26;20001;-73
2024/04/13 13:49:03;;;;;;;;;;;25.50;99.90;;;;;;5448021;26;19948;-71
2024/04/13 13:51:30;;;;;;;;;;;25.50;99.80;;;;;;5451107;26;19928;-74
2024/04/13 13:53:55;;;;;;;;;;;25.50;99.60;;;;;;5449215;26;19974;-73
2024/04/13 13:56:22;;;;;;;;;;;25.40;99.70;;;;;;5449027;26;19928;-73
2024/04/13 13:58:48;;;;;;;;;;;25.40;99.80;;;;;;5449340;26;20393;-73
2024/04/13 14:01:13;;;;;;;;;;;25.30;99.80;;;;;;5448528;26;19932;-72
2024/04/13 14:03:39;;;;;;;;;;;25.40;99.90;;;;;;5448610;26;19960;-73
2024/04/13 14:06:04;;;;;;;;;;;25.30;99.80;;;;;;5448371;26;19928;-74
2024/04/13 14:08:33;;;;;;;;;;;25.20;99.90;;;;;;5448941;26;19928;-74
2024/04/13 14:10:59;;;;;;;;;;;25.30;99.90;;;;;;5450895;26;19928;-74